31°C Temp
19°C Dewpoint
% Humidity
Temperature
5 KM/H
3 MPH
3 KTS
Calm
Due North

Wind Speed
Clear
Conditions
Pressure 1016.92 (hPa) - 30.03 (in)
Visibility 6.2 (mi) - 10.0 (km)

Current Conditions
LIRQ
Location 35(km)
Metar :LIRQ 030850Z VRB03KT CAVOK 31/19 Q1017
Sun 3rd July 10:50 am

Airport
  Metar Aviation API Data Provided by https://www.checkwx.com/ PHP scripts by weather34.com ©2022